Time;durP1;ratioP1;P1;durP2;ratioP2;P2;SDS_P1;SDS_P2;PMS_P1;PMS_P2;Temp;Humidity;BMP_temperature;BMP_pressure;BME280_temperature;BME280_humidity;BME280_pressure;Samples;Min_cycle;Max_cycle;Signal;HPM_P1;HPM_P2
2022/12/02 00:01:49;;;;;;;;;;;;;;;10.56;49.61;101665.31;5016264;27;119501;-63
2022/12/02 00:04:23;;;;;;;;;;;;;;;10.55;49.55;101660.97;5012797;27;126257;-65
2022/12/02 00:06:50;;;;;;;;;;;;;;;10.55;49.93;101658.28;5015729;27;98675;-65
2022/12/02 00:09:31;;;;;;;;;;;;;;;10.55;49.66;101644.78;4997950;27;98186;-64
2022/12/02 00:11:58;;;;;;;;;;;;;;;10.53;49.75;101645.03;5017784;27;107830;-65
2022/12/02 00:14:26;;;;;;;;;;;;;;;10.52;50.00;101643.38;5016675;27;124251;-63
2022/12/02 00:16:52;;;;;;;;;;;;;;;10.54;49.70;101646.69;5014282;27;99153;-63
2022/12/02 00:19:18;;;;;;;;;;;;;;;10.54;49.84;101646.69;5013266;27;112920;-64
2022/12/02 00:21:44;;;;;;;;;;;;;;;10.53;49.54;101653.13;5016913;27;98092;-65
2022/12/02 00:24:10;;;;;;;;;;;;;;;10.54;50.10;101648.56;5013127;27;105002;-64
2022/12/02 00:26:36;;;;;;;;;;;;;;;10.53;49.87;101638.81;5015666;27;126092;-65
2022/12/02 00:29:02;;;;;;;;;;;;;;;10.51;50.02;101644.44;5014600;27;126495;-64
2022/12/02 00:31:28;;;;;;;;;;;;;;;10.52;49.95;101640.69;5016630;27;115976;-64
2022/12/02 00:33:55;;;;;;;;;;;;;;;10.50;49.78;101634.72;5012836;27;128152;-65
2022/12/02 00:36:21;;;;;;;;;;;;;;;10.52;49.62;101637.19;5009001;27;99005;-66
2022/12/02 00:38:47;;;;;;;;;;;;;;;10.51;49.99;101636.38;5013850;27;125444;-65
2022/12/02 00:41:13;;;;;;;;;;;;;;;10.51;49.99;101630.16;5017989;27;116623;-63
2022/12/02 00:46:33;;;;;;;;;;;;;;;10.51;49.57;101639.06;5007840;27;98181;-65
2022/12/02 00:49:02;;;;;;;;;;;;;;;10.50;49.64;101629.34;5017660;27;98980;-64
2022/12/02 00:51:28;;;;;;;;;;;;;;;10.49;49.94;101622.31;5020852;27;98247;-64
2022/12/02 00:53:54;;;;;;;;;;;;;;;10.50;49.86;101625.84;4995436;27;126750;-64
2022/12/02 00:56:20;;;;;;;;;;;;;;;10.50;49.95;101620.44;4997140;27;98918;-64
2022/12/02 00:58:46;;;;;;;;;;;;;;;10.49;49.81;101626.88;5001928;27;128575;-64
2022/12/02 01:01:12;;;;;;;;;;;;;;;10.49;49.87;101621.47;5016587;27;117579;-65
2022/12/02 01:03:38;;;;;;;;;;;;;;;10.50;49.84;101618.56;5014635;27;98665;-63
2022/12/02 01:06:04;;;;;;;;;;;;;;;10.48;49.90;101620.66;5013328;27;127394;-65
2022/12/02 01:08:30;;;;;;;;;;;;;;;10.50;49.98;101628.53;5015938;27;127984;-65
2022/12/02 01:10:56;;;;;;;;;;;;;;;10.48;49.80;101619.84;5019479;27;117470;-64
2022/12/02 01:13:22;;;;;;;;;;;;;;;10.48;49.72;101623.34;5017438;27;106529;-65
2022/12/02 01:15:48;;;;;;;;;;;;;;;10.48;49.73;101625.25;5020143;27;106126;-66
2022/12/02 01:18:14;;;;;;;;;;;;;;;10.47;49.61;101623.59;5017691;27;119956;-65
2022/12/02 01:20:40;;;;;;;;;;;;;;;10.46;49.44;101630.06;4998262;27;116722;-64
2022/12/02 01:23:06;;;;;;;;;;;;;;;10.45;49.94;101623.00;5015898;27;128902;-65
2022/12/02 01:25:33;;;;;;;;;;;;;;;10.45;49.92;101629.25;5015547;27;127251;-66
2022/12/02 01:27:58;;;;;;;;;;;;;;;10.44;49.93;101622.19;4996351;27;98105;-64
2022/12/02 01:30:24;;;;;;;;;;;;;;;10.44;49.45;101626.78;5016346;27;116643;-66
2022/12/02 01:32:50;;;;;;;;;;;;;;;10.44;50.06;101618.69;4995159;27;128176;-65
2022/12/02 01:35:16;;;;;;;;;;;;;;;10.44;49.75;101616.00;5012542;27;127978;-64
2022/12/02 01:37:42;;;;;;;;;;;;;;;10.43;49.63;101608.97;5014183;27;120989;-65
2022/12/02 01:40:09;;;;;;;;;;;;;;;10.42;49.95;101605.47;5013865;27;116307;-65
2022/12/02 01:42:34;;;;;;;;;;;;;;;10.41;50.06;101609.19;4998681;27;101680;-65
2022/12/02 01:45:00;;;;;;;;;;;;;;;10.41;49.78;101606.50;5015177;27;127647;-65
2022/12/02 01:47:26;;;;;;;;;;;;;;;10.40;50.08;101604.88;5015242;27;128101;-65
2022/12/02 01:49:52;;;;;;;;;;;;;;;10.40;49.80;101599.47;5001323;27;117461;-64
2022/12/02 01:52:18;;;;;;;;;;;;;;;10.40;49.59;101598.66;4995819;27;129596;-66
2022/12/02 01:54:44;;;;;;;;;;;;;;;10.39;49.64;101603.22;4982177;27;128774;-64
2022/12/02 01:57:11;;;;;;;;;;;;;;;10.39;49.56;101595.16;5012074;27;127405;-65
2022/12/02 01:59:37;;;;;;;;;;;;;;;10.39;49.79;101597.84;5012312;27;117861;-65
2022/12/02 02:02:22;;;;;;;;;;;;;;;10.38;49.66;101595.41;4995665;27;127118;-65
2022/12/02 02:04:47;;;;;;;;;;;;;;;10.37;49.65;101596.44;4981236;27;124272;-64
2022/12/02 02:07:13;;;;;;;;;;;;;;;10.37;50.11;101597.25;5012337;27;126721;-64
2022/12/02 02:09:39;;;;;;;;;;;;;;;10.37;49.80;101596.44;5012750;27;117540;-64
2022/12/02 02:12:05;;;;;;;;;;;;;;;10.37;49.98;101602.63;5017735;27;127763;-65
2022/12/02 02:14:31;;;;;;;;;;;;;;;10.36;49.75;101600.19;5015698;27;127933;-64
2022/12/02 02:16:57;;;;;;;;;;;;;;;10.38;49.57;101603.47;4994034;27;126776;-66
2022/12/02 02:19:23;;;;;;;;;;;;;;;10.45;49.77;101602.28;5015844;27;116060;-64
2022/12/02 02:21:50;;;;;;;;;;;;;;;10.51;49.61;101604.00;5017131;27;127676;-66
2022/12/02 02:24:15;;;;;;;;;;;;;;;10.57;49.82;101600.38;4995897;27;99320;-63
2022/12/02 02:26:41;;;;;;;;;;;;;;;10.63;49.94;101597.75;5015294;27;112763;-66
2022/12/02 02:29:07;;;;;;;;;;;;;;;10.66;49.74;101591.91;4997886;27;118057;-66
2022/12/02 02:31:33;;;;;;;;;;;;;;;10.68;49.97;101587.88;4996396;27;128129;-64
2022/12/02 02:33:59;;;;;;;;;;;;;;;10.71;49.61;101594.69;4979718;27;127492;-64
2022/12/02 02:36:25;;;;;;;;;;;;;;;10.74;49.83;101597.72;4985653;27;128363;-64
2022/12/02 02:38:51;;;;;;;;;;;;;;;10.75;50.15;101595.84;4994989;27;116844;-64
2022/12/02 02:41:17;;;;;;;;;;;;;;;10.77;49.69;101593.72;5001255;27;128673;-65
2022/12/02 02:43:43;;;;;;;;;;;;;;;10.77;49.77;101593.72;4981602;27;126148;-65
2022/12/02 02:46:08;;;;;;;;;;;;;;;10.78;49.89;101598.06;5011278;27;128101;-64
2022/12/02 02:48:34;;;;;;;;;;;;;;;10.79;50.04;101597.81;4992422;27;117458;-64
2022/12/02 02:51:00;;;;;;;;;;;;;;;10.79;49.86;101594.28;4964295;27;126933;-64
2022/12/02 02:53:26;;;;;;;;;;;;;;;10.79;49.74;101587.03;4963857;27;128634;-65
2022/12/02 02:55:52;;;;;;;;;;;;;;;10.79;50.06;101594.28;4979858;27;98109;-66
2022/12/02 02:58:20;;;;;;;;;;;;;;;10.79;49.72;101587.03;4993833;27;108769;-65
2022/12/02 03:00:52;;;;;;;;;;;;;;;10.79;49.75;101591.59;4998913;27;98532;-64
2022/12/02 03:03:19;;;;;;;;;;;;;;;10.78;50.05;101585.38;4974685;27;115128;-64
2022/12/02 03:05:45;;;;;;;;;;;;;;;10.78;49.74;101590.78;4950802;27;98063;-65
2022/12/02 03:08:11;;;;;;;;;;;;;;;10.76;50.23;101584.78;4974107;27;116981;-64
2022/12/02 03:10:37;;;;;;;;;;;;;;;10.77;49.80;101577.56;4972350;27;126991;-64
2022/12/02 03:13:03;;;;;;;;;;;;;;;10.76;49.99;101578.59;4992354;27;128471;-64
2022/12/02 03:15:29;;;;;;;;;;;;;;;10.76;49.97;101578.59;4973674;27;125581;-64
2022/12/02 03:17:55;;;;;;;;;;;;;;;10.75;50.20;101576.97;4974951;27;118204;-66
2022/12/02 03:20:21;;;;;;;;;;;;;;;10.75;49.88;101576.97;4996277;27;125847;-64
2022/12/02 03:22:47;;;;;;;;;;;;;;;10.73;49.71;101571.00;4978945;27;128161;-64
2022/12/02 03:25:13;;;;;;;;;;;;;;;10.70;49.90;101569.59;4988146;27;123375;-66
2022/12/02 03:27:39;;;;;;;;;;;;;;;10.70;49.94;101571.47;4998390;27;117452;-65
2022/12/02 03:30:06;;;;;;;;;;;;;;;10.68;50.03;101569.00;4996441;27;98517;-64
2022/12/02 03:32:32;;;;;;;;;;;;;;;10.68;49.97;101566.31;4972823;27;117470;-64
2022/12/02 03:34:58;;;;;;;;;;;;;;;10.67;50.00;101570.06;4974980;27;127692;-64
2022/12/02 03:37:24;;;;;;;;;;;;;;;10.66;50.23;101570.31;4977066;27;108270;-66
2022/12/02 03:39:50;;;;;;;;;;;;;;;10.65;49.99;101564.13;4994064;27;128276;-65
2022/12/02 03:42:16;;;;;;;;;;;;;;;10.64;50.07;101558.94;4977302;27;128706;-66
2022/12/02 03:44:42;;;;;;;;;;;;;;;10.63;50.12;101568.09;4974499;27;129852;-64
2022/12/02 03:47:07;;;;;;;;;;;;;;;10.62;49.88;101556.50;4992573;27;116832;-66
2022/12/02 03:49:33;;;;;;;;;;;;;;;10.61;50.02;101552.19;4977733;27;127269;-64
2022/12/02 03:51:59;;;;;;;;;;;;;;;10.59;50.25;101553.47;4999012;27;98819;-66
2022/12/02 03:54:25;;;;;;;;;;;;;;;10.59;49.75;101562.38;5009816;27;129532;-65
2022/12/02 03:56:51;;;;;;;;;;;;;;;10.56;49.66;101563.66;4998064;27;115750;-65
2022/12/02 03:59:22;;;;;;;;;;;;;;;10.56;50.07;101563.66;5010174;27;128646;-65
2022/12/02 04:01:47;;;;;;;;;;;;;;;10.56;49.88;101576.31;5001050;27;100927;-66
2022/12/02 04:04:13;;;;;;;;;;;;;;;10.53;49.76;101572.25;5013940;27;123524;-63
2022/12/02 04:06:39;;;;;;;;;;;;;;;10.54;50.23;101564.97;5014245;27;98331;-64
2022/12/02 04:09:05;;;;;;;;;;;;;;;10.53;49.50;101557.94;5012688;27;121129;-64
2022/12/02 04:11:31;;;;;;;;;;;;;;;10.52;49.76;101545.53;5011108;27;128618;-65
2022/12/02 04:13:57;;;;;;;;;;;;;;;10.50;49.47;101536.88;5013118;27;121315;-65
2022/12/02 04:16:23;;;;;;;;;;;;;;;10.51;50.04;101541.19;5014170;27;117121;-63
2022/12/02 04:18:49;;;;;;;;;;;;;;;10.50;50.23;101542.25;5015663;27;125623;-63
2022/12/02 04:21:15;;;;;;;;;;;;;;;10.50;50.03;101545.78;5015027;27;127628;-65
2022/12/02 04:23:41;;;;;;;;;;;;;;;10.49;49.87;101544.16;4998050;27;127116;-63
2022/12/02 04:26:07;;;;;;;;;;;;;;;10.49;49.61;101544.16;4998963;27;117589;-65
2022/12/02 04:28:33;;;;;;;;;;;;;;;10.48;49.63;101547.88;4978386;27;129357;-64
2022/12/02 04:30:58;;;;;;;;;;;;;;;10.49;49.97;101541.44;5016947;27;106337;-63
2022/12/02 04:33:24;;;;;;;;;;;;;;;10.49;49.74;101544.16;5013414;27;127705;-65
2022/12/02 04:35:50;;;;;;;;;;;;;;;10.49;50.10;101538.75;4995154;27;115320;-64
2022/12/02 04:38:16;;;;;;;;;;;;;;;10.49;50.25;101546.00;4996918;27;128453;-66
2022/12/02 04:40:42;;;;;;;;;;;;;;;10.50;49.81;101547.66;5014855;27;127586;-65
2022/12/02 04:43:08;;;;;;;;;;;;;;;10.50;49.58;101535.00;5014553;27;126433;-65
2022/12/02 04:45:34;;;;;;;;;;;;;;;10.51;49.68;101538.50;5014421;27;117172;-64
2022/12/02 04:48:00;;;;;;;;;;;;;;;10.50;49.77;101536.88;5010349;27;127966;-64
2022/12/02 04:50:26;;;;;;;;;;;;;;;10.51;49.83;101535.81;5013997;27;124137;-63
2022/12/02 04:52:51;;;;;;;;;;;;;;;10.50;50.12;101529.59;5006537;27;128631;-65
2022/12/02 04:55:17;;;;;;;;;;;;;;;10.51;49.92;101531.22;4992252;27;118606;-65
2022/12/02 04:57:43;;;;;;;;;;;;;;;10.51;49.76;101522.31;5005080;27;127808;-65
2022/12/02 05:00:10;;;;;;;;;;;;;;;10.50;49.51;101523.38;5016628;27;126839;-65
2022/12/02 05:02:36;;;;;;;;;;;;;;;10.51;49.68;101525.84;5017349;27;116531;-65
2022/12/02 05:05:02;;;;;;;;;;;;;;;10.52;50.18;101526.66;5008700;27;106617;-63
2022/12/02 05:07:27;;;;;;;;;;;;;;;10.52;49.97;101523.94;5017980;27;128874;-63
2022/12/02 05:09:53;;;;;;;;;;;;;;;10.51;49.68;101525.84;5017122;27;128193;-66
2022/12/02 05:12:19;;;;;;;;;;;;;;;10.52;49.93;101527.47;5019493;27;126519;-66
2022/12/02 05:14:45;;;;;;;;;;;;;;;10.52;49.76;101535.53;5010525;27;97940;-64
2022/12/02 05:17:11;;;;;;;;;;;;;;;10.53;49.68;101525.56;5014766;27;125724;-63
2022/12/02 05:19:37;;;;;;;;;;;;;;;10.53;49.96;101536.38;5014584;27;108489;-65
2022/12/02 05:22:03;;;;;;;;;;;;;;;10.53;49.74;101536.38;5004236;27;127887;-64
2022/12/02 05:24:29;;;;;;;;;;;;;;;10.53;49.47;101528.28;5007378;27;117512;-65
2022/12/02 05:26:55;;;;;;;;;;;;;;;10.51;49.91;101531.22;5008415;27;128275;-64
2022/12/02 05:29:21;;;;;;;;;;;;;;;10.52;49.71;101529.34;5006761;27;128950;-66
2022/12/02 05:31:47;;;;;;;;;;;;;;;10.51;49.88;101536.63;5012691;27;98821;-65
2022/12/02 05:34:12;;;;;;;;;;;;;;;10.50;49.79;101532.28;5002265;27;116818;-65
2022/12/02 05:36:38;;;;;;;;;;;;;;;10.50;49.86;101536.88;5012475;27;127864;-64
2022/12/02 05:39:04;;;;;;;;;;;;;;;10.48;49.75;101537.09;5001436;27;127449;-64
2022/12/02 05:41:30;;;;;;;;;;;;;;;10.49;49.63;101543.28;5000537;27;126805;-64
2022/12/02 05:43:56;;;;;;;;;;;;;;;10.47;50.07;101540.84;4993632;27;98004;-64
2022/12/02 05:46:22;;;;;;;;;;;;;;;10.47;49.75;101545.44;4982049;27;128240;-63
2022/12/02 05:48:49;;;;;;;;;;;;;;;10.47;49.76;101548.94;4993481;27;128360;-63
2022/12/02 05:51:16;;;;;;;;;;;;;;;10.46;50.09;101546.50;4996498;27;98005;-64
2022/12/02 05:53:43;;;;;;;;;;;;;;;10.46;49.80;101546.50;5010475;27;97907;-63
2022/12/02 05:56:17;;;;;;;;;;;;;;;10.44;50.01;101544.03;5003360;27;101909;-64
2022/12/02 05:58:43;;;;;;;;;;;;;;;10.45;49.91;101542.13;4988693;27;122655;-64
2022/12/02 06:01:33;;;;;;;;;;;;;;;10.43;49.91;101550.47;5003640;27;126553;-64
2022/12/02 06:03:59;;;;;;;;;;;;;;;10.42;49.80;101543.47;4997615;27;110522;-64
2022/12/02 06:06:28;;;;;;;;;;;;;;;10.42;49.98;101546.16;4999893;27;129012;-65
2022/12/02 06:08:54;;;;;;;;;;;;;;;10.41;49.65;101555.28;4990832;27;98501;-64
2022/12/02 06:11:30;;;;;;;;;;;;;;;10.41;49.93;101546.38;5006276;27;111700;-63
2022/12/02 06:13:57;;;;;;;;;;;;;;;10.41;49.72;101552.59;4991882;27;98831;-66
2022/12/02 06:16:24;;;;;;;;;;;;;;;10.40;50.22;101556.34;4991356;27;98943;-65
2022/12/02 06:18:50;;;;;;;;;;;;;;;10.39;49.77;101549.31;5006680;27;99177;-66
2022/12/02 06:21:18;;;;;;;;;;;;;;;10.39;49.50;101549.31;4989477;27;99197;-64
2022/12/02 06:23:45;;;;;;;;;;;;;;;10.38;49.66;101549.56;4978073;27;98152;-64
2022/12/02 06:26:17;;;;;;;;;;;;;;;10.37;49.98;101542.53;4984995;27;124832;-65
2022/12/02 06:28:44;;;;;;;;;;;;;;;10.37;49.49;101550.59;4993440;27;99068;-63
2022/12/02 06:31:19;;;;;;;;;;;;;;;10.37;50.08;101551.44;5008711;27;99414;-63
2022/12/02 06:33:46;;;;;;;;;;;;;;;10.35;50.10;101548.16;5011150;27;98051;-63
2022/12/02 06:36:22;;;;;;;;;;;;;;;10.35;49.75;101569.72;4994803;27;128075;-65
2022/12/02 06:38:51;;;;;;;;;;;;;;;10.34;49.84;101556.50;4986357;27;98301;-64
2022/12/02 06:41:22;;;;;;;;;;;;;;;10.32;49.76;101554.84;4990925;27;99755;-65
2022/12/02 06:46:34;;;;;;;;;;;;;;;10.29;49.83;101558.00;5006786;27;98267;-64
2022/12/02 06:49:17;;;;;;;;;;;;;;;10.28;49.70;101550.19;4993939;27;99077;-66
2022/12/02 06:51:43;;;;;;;;;;;;;;;10.28;50.00;101564.47;4996930;27;123910;-64
2022/12/02 06:54:15;;;;;;;;;;;;;;;10.27;49.64;101564.72;5001995;27;117031;-66
2022/12/02 06:56:41;;;;;;;;;;;;;;;10.26;50.05;101560.38;4997138;27;124281;-65
2022/12/02 06:59:08;;;;;;;;;;;;;;;10.25;49.46;101567.63;5012246;27;127383;-65
2022/12/02 07:01:40;;;;;;;;;;;;;;;10.25;49.78;101558.72;4964986;27;126852;-65
2022/12/02 07:04:09;;;;;;;;;;;;;;;10.25;49.96;101561.44;4986095;27;98899;-65
2022/12/02 07:06:42;;;;;;;;;;;;;;;10.23;50.14;101561.66;5012680;27;98272;-64
2022/12/02 07:09:36;;;;;;;;;;;;;;;10.24;50.18;101565.16;5004051;27;98725;-65
2022/12/02 07:12:03;;;;;;;;;;;;;;;10.23;49.59;101561.66;4980678;27;98244;-64
2022/12/02 07:14:46;;;;;;;;;;;;;;;10.23;49.47;101564.34;4991589;27;115024;-64
2022/12/02 07:17:22;;;;;;;;;;;;;;;10.23;49.98;101555.44;4994078;27;128141;-65
2022/12/02 07:20:11;;;;;;;;;;;;;;;10.22;50.11;101554.63;4983263;27;99033;-64
2022/12/02 07:23:12;;;;;;;;;;;;;;;10.21;49.80;101546.75;4989625;27;122424;-65
2022/12/02 07:25:45;;;;;;;;;;;;;;;10.22;50.04;101556.50;4956036;27;99450;-65
2022/12/02 07:28:24;;;;;;;;;;;;;;;10.22;49.84;101551.94;5005107;27;98410;-65
2022/12/02 07:31:15;;;;;;;;;;;;;;;10.21;49.92;101554.84;4988839;27;99233;-66
2022/12/02 07:33:41;;;;;;;;;;;;;;;10.21;49.81;101549.47;5001520;27;98153;-65
2022/12/02 07:36:07;;;;;;;;;;;;;;;10.21;49.84;101554.84;5008569;27;117642;-65
2022/12/02 07:38:33;;;;;;;;;;;;;;;10.20;49.98;101547.81;5009429;27;125852;-65
2022/12/02 07:40:59;;;;;;;;;;;;;;;10.21;50.02;101552.16;5004245;27;127937;-65
2022/12/02 07:43:25;;;;;;;;;;;;;;;10.20;50.18;101550.53;5002330;27;127629;-65
2022/12/02 07:45:51;;;;;;;;;;;;;;;10.20;49.65;101548.63;5010830;27;116482;-65
2022/12/02 07:48:16;;;;;;;;;;;;;;;10.20;49.88;101553.22;4999164;27;128669;-66
2022/12/02 07:50:42;;;;;;;;;;;;;;;10.20;50.13;101551.34;4999408;27;127922;-64
2022/12/02 07:53:08;;;;;;;;;;;;;;;10.20;49.70;101561.28;4990103;27;129397;-64
2022/12/02 07:55:34;;;;;;;;;;;;;;;10.20;50.00;101562.13;4974819;27;116942;-66
2022/12/02 07:58:00;;;;;;;;;;;;;;;10.20;49.87;101558.59;4992754;27;121445;-65
2022/12/02 08:00:26;;;;;;;;;;;;;;;10.21;49.75;101554.84;5010113;27;127722;-64
2022/12/02 08:02:54;;;;;;;;;;;;;;;10.20;50.11;101562.13;5004045;27;99156;-65
2022/12/02 08:05:20;;;;;;;;;;;;;;;10.20;49.79;101556.72;4970241;27;98083;-64
2022/12/02 08:07:46;;;;;;;;;;;;;;;10.22;50.04;101564.59;5012660;27;125702;-64
2022/12/02 08:10:12;;;;;;;;;;;;;;;10.21;49.67;101561.03;5005812;27;98959;-65
2022/12/02 08:12:38;;;;;;;;;;;;;;;10.22;49.72;101562.72;5007924;27;97882;-65
2022/12/02 08:15:06;;;;;;;;;;;;;;;10.21;49.62;101569.13;4994887;27;116896;-65
2022/12/02 08:17:32;;;;;;;;;;;;;;;10.22;49.45;101565.41;5011673;27;123033;-65
2022/12/02 08:19:57;;;;;;;;;;;;;;;10.25;49.62;101569.50;5002767;27;125947;-66
2022/12/02 08:22:24;;;;;;;;;;;;;;;10.24;49.60;101571.34;5011890;27;126792;-64
2022/12/02 08:24:49;;;;;;;;;;;;;;;10.26;49.47;101563.91;5015781;27;100636;-65
2022/12/02 08:27:15;;;;;;;;;;;;;;;10.27;49.32;101557.44;5003518;27;127230;-66
2022/12/02 08:29:41;;;;;;;;;;;;;;;10.28;49.91;101555.56;5020677;27;98823;-64
2022/12/02 08:32:07;;;;;;;;;;;;;;;10.29;49.78;101559.88;5014286;27;99243;-64
2022/12/02 08:34:33;;;;;;;;;;;;;;;10.30;49.60;101548.88;4997962;27;118014;-65
2022/12/02 08:36:59;;;;;;;;;;;;;;;10.32;49.84;101556.72;5011637;27;127915;-64
2022/12/02 08:39:25;;;;;;;;;;;;;;;10.31;49.87;101558.59;4990400;27;104267;-64
2022/12/02 08:41:51;;;;;;;;;;;;;;;10.34;49.91;101557.31;4991176;27;128052;-63
2022/12/02 08:44:17;;;;;;;;;;;;;;;10.37;49.92;101556.00;4998126;27;117236;-65
2022/12/02 08:46:43;;;;;;;;;;;;;;;10.39;49.66;101556.59;5012961;27;128122;-66
2022/12/02 08:49:09;;;;;;;;;;;;;;;10.40;49.44;101553.66;5010504;27;127039;-65
2022/12/02 08:51:35;;;;;;;;;;;;;;;10.42;49.32;101559.63;5013487;27;98005;-64
2022/12/02 08:54:01;;;;;;;;;;;;;;;10.43;49.88;101557.75;5008481;27;99205;-64
2022/12/02 08:56:27;;;;;;;;;;;;;;;10.44;49.29;101564.78;5006273;27;121351;-64
2022/12/02 08:58:53;;;;;;;;;;;;;;;10.45;49.42;101561.00;5014222;27;99404;-64
2022/12/02 09:01:18;;;;;;;;;;;;;;;10.44;49.51;101562.06;5007610;27;126555;-64
2022/12/02 09:03:44;;;;;;;;;;;;;;;10.44;49.28;101579.06;5009095;27;117816;-64
2022/12/02 09:06:10;;;;;;;;;;;;;;;10.45;49.88;101569.09;5004220;27;128056;-64
2022/12/02 09:08:36;;;;;;;;;;;;;;;10.44;49.23;101573.69;5013301;27;126837;-64
2022/12/02 09:11:02;;;;;;;;;;;;;;;10.44;49.66;101575.56;4993342;27;128083;-63
2022/12/02 09:13:28;;;;;;;;;;;;;;;10.44;49.36;101572.84;5011874;27;116949;-66
2022/12/02 09:15:54;;;;;;;;;;;;;;;10.44;49.75;101565.59;5005729;27;99582;-64
2022/12/02 09:18:20;;;;;;;;;;;;;;;10.44;50.08;101559.38;5007687;27;127890;-64
2022/12/02 09:20:47;;;;;;;;;;;;;;;10.44;49.59;101568.28;5011886;27;104056;-64
2022/12/02 09:23:13;;;;;;;;;;;;;;;10.47;49.39;101569.69;5007036;27;98110;-64
2022/12/02 09:25:39;;;;;;;;;;;;;;;10.46;49.77;101566.19;5003906;27;128064;-64
2022/12/02 09:28:04;;;;;;;;;;;;;;;10.47;49.72;101562.41;5010900;27;127557;-63
2022/12/02 09:30:30;;;;;;;;;;;;;;;10.49;49.82;101564.84;5007707;27;127617;-64
2022/12/02 09:32:56;;;;;;;;;;;;;;;10.51;49.79;101560.06;5004613;27;97892;-64
2022/12/02 09:35:22;;;;;;;;;;;;;;;10.52;49.84;101559.81;5004742;27;98938;-64
2022/12/02 09:37:48;;;;;;;;;;;;;;;10.54;49.73;101551.50;5014351;27;127317;-64
2022/12/02 09:40:14;;;;;;;;;;;;;;;10.56;49.72;101552.06;4989362;27;125840;-66
2022/12/02 09:42:40;;;;;;;;;;;;;;;10.56;49.87;101546.66;4983913;27;116912;-64
2022/12/02 09:45:06;;;;;;;;;;;;;;;10.57;49.55;101545.59;4992088;27;127016;-64
2022/12/02 09:47:32;;;;;;;;;;;;;;;10.56;49.69;101539.41;5007950;27;122947;-63
2022/12/02 09:49:58;;;;;;;;;;;;;;;10.58;49.71;101549.97;5012041;27;127516;-63
2022/12/02 09:52:24;;;;;;;;;;;;;;;10.58;49.48;101539.19;5011659;27;112838;-63
2022/12/02 09:54:54;;;;;;;;;;;;;;;10.60;49.69;101534.34;4977412;27;99034;-65
2022/12/02 09:57:26;;;;;;;;;;;;;;;10.61;49.30;101540.56;5013376;27;107068;-65
2022/12/02 09:59:51;;;;;;;;;;;;;;;10.59;49.40;101538.09;4976601;27;98136;-65
2022/12/02 10:02:31;;;;;;;;;;;;;;;10.59;49.81;101540.81;5009892;27;118119;-63
2022/12/02 10:04:58;;;;;;;;;;;;;;;10.60;49.40;101544.31;5008297;27;126583;-65
2022/12/02 10:07:24;;;;;;;;;;;;;;;10.58;49.59;101541.88;5001168;27;98523;-63
2022/12/02 10:09:50;;;;;;;;;;;;;;;10.59;49.59;101540.81;5017420;27;125319;-64
2022/12/02 10:12:16;;;;;;;;;;;;;;;10.58;49.87;101544.56;5018721;27;117600;-64
2022/12/02 10:14:43;;;;;;;;;;;;;;;10.57;49.26;101532.97;5009745;27;98932;-63
2022/12/02 10:17:14;;;;;;;;;;;;;;;10.59;49.42;101531.91;5016134;27;126956;-64
2022/12/02 10:19:40;;;;;;;;;;;;;;;10.57;49.76;101524.03;4984491;27;97969;-66
2022/12/02 10:22:17;;;;;;;;;;;;;;;10.58;49.71;101528.38;5014331;27;115062;-63
2022/12/02 10:24:43;;;;;;;;;;;;;;;10.59;49.65;101523.81;5005934;27;104033;-63
2022/12/02 10:27:21;;;;;;;;;;;;;;;10.59;49.54;101529.22;5017580;27;128080;-65
2022/12/02 10:29:47;;;;;;;;;;;;;;;10.59;49.70;101521.94;4995211;27;101913;-63
2022/12/02 10:32:19;;;;;;;;;;;;;;;10.60;49.45;101520.88;5010332;27;117586;-64
2022/12/02 10:34:59;;;;;;;;;;;;;;;10.60;49.55;101517.34;5007497;27;99232;-63
2022/12/02 10:37:25;;;;;;;;;;;;;;;10.62;49.47;101513.38;5010826;27;122886;-63
2022/12/02 10:40:14;;;;;;;;;;;;;;;10.63;49.70;101512.28;5016416;27;98277;-63
2022/12/02 10:42:40;;;;;;;;;;;;;;;10.64;49.83;101515.81;5014737;27;97818;-63
2022/12/02 10:45:13;;;;;;;;;;;;;;;10.65;49.53;101507.50;4999443;27;103575;-64
2022/12/02 10:47:39;;;;;;;;;;;;;;;10.66;49.67;101506.44;4998832;27;99089;-63
2022/12/02 10:50:13;;;;;;;;;;;;;;;10.68;49.46;101511.56;5009902;27;97965;-63
2022/12/02 10:52:43;;;;;;;;;;;;;;;10.70;49.32;101510.28;4975060;27;99629;-64
2022/12/02 10:55:11;;;;;;;;;;;;;;;10.72;49.59;101507.31;4997063;27;119461;-63
2022/12/02 10:57:37;;;;;;;;;;;;;;;10.73;49.47;101508.97;4994497;27;98980;-63
2022/12/02 11:00:12;;;;;;;;;;;;;;;10.75;49.68;101507.66;4988877;27;108143;-66
2022/12/02 11:02:46;;;;;;;;;;;;;;;10.76;49.83;101500.38;5006522;27;97967;-65
2022/12/02 11:05:27;;;;;;;;;;;;;;;10.77;49.82;101499.34;4991928;27;100484;-63
2022/12/02 11:08:14;;;;;;;;;;;;;;;10.78;49.60;101503.66;4986919;27;101864;-63
2022/12/02 11:10:42;;;;;;;;;;;;;;;10.78;49.68;101504.47;5010134;27;98468;-65
2022/12/02 11:13:17;;;;;;;;;;;;;;;10.78;49.26;101503.66;4990335;27;97990;-64
2022/12/02 11:15:47;;;;;;;;;;;;;;;10.77;49.76;101502.84;4999769;27;99781;-65
2022/12/02 11:18:25;;;;;;;;;;;;;;;10.77;49.20;101502.84;5008356;27;98761;-63
2022/12/02 11:21:06;;;;;;;;;;;;;;;10.77;49.45;101502.03;5011587;27;99146;-64
2022/12/02 11:23:32;;;;;;;;;;;;;;;10.76;49.49;101503.88;5009427;27;99009;-63
2022/12/02 11:26:02;;;;;;;;;;;;;;;10.76;49.59;101500.38;4996527;27;126412;-63
2022/12/02 11:28:28;;;;;;;;;;;;;;;10.77;49.61;101504.72;4991446;27;98220;-65
2022/12/02 11:31:17;;;;;;;;;;;;;;;10.75;49.51;101502.25;5012464;27;102471;-64
2022/12/02 11:33:43;;;;;;;;;;;;;;;10.76;49.69;101498.50;5013635;27;99153;-65
2022/12/02 11:36:12;;;;;;;;;;;;;;;10.76;49.32;101495.78;5000058;27;99065;-63
2022/12/02 11:38:50;;;;;;;;;;;;;;;10.78;49.39;101492.88;5010077;27;99620;-63
2022/12/02 11:41:20;;;;;;;;;;;;;;;10.77;49.75;101492.06;5014420;27;99017;-65
2022/12/02 11:43:46;;;;;;;;;;;;;;;10.77;49.79;101492.06;4987185;27;98032;-63
2022/12/02 11:46:19;;;;;;;;;;;;;;;10.78;49.34;101480.22;5006176;27;103401;-63
2022/12/02 11:48:50;;;;;;;;;;;;;;;10.78;49.62;101484.78;4992511;27;125679;-62
2022/12/02 11:51:32;;;;;;;;;;;;;;;10.78;49.81;101484.78;4994775;27;97948;-63
2022/12/02 11:53:58;;;;;;;;;;;;;;;10.76;49.74;101481.50;4989806;27;114469;-65
2022/12/02 11:56:28;;;;;;;;;;;;;;;10.76;49.74;101478.81;4997427;27;98002;-63
2022/12/02 11:58:54;;;;;;;;;;;;;;;10.75;49.61;101479.88;4974919;27;128840;-66
2022/12/02 12:01:20;;;;;;;;;;;;;;;10.75;49.50;101487.97;4996594;27;126323;-65
2022/12/02 12:03:50;;;;;;;;;;;;;;;10.74;49.52;101486.34;4988064;27;117336;-65
2022/12/02 12:06:23;;;;;;;;;;;;;;;10.73;49.39;101485.53;5003114;27;102679;-65
2022/12/02 12:08:50;;;;;;;;;;;;;;;10.74;49.57;101492.53;5006585;27;98464;-65
2022/12/02 12:11:18;;;;;;;;;;;;;;;10.73;49.72;101490.09;4984446;27;100116;-65
2022/12/02 12:14:05;;;;;;;;;;;;;;;10.73;49.79;101490.91;5008648;27;104509;-63
2022/12/02 12:16:33;;;;;;;;;;;;;;;10.72;49.52;101494.66;5001296;27;98865;-65
2022/12/02 12:19:02;;;;;;;;;;;;;;;10.70;49.47;101483.31;5011802;27;99100;-63
2022/12/02 12:21:32;;;;;;;;;;;;;;;10.71;49.56;101484.13;4995273;27;98224;-63
2022/12/02 12:24:19;;;;;;;;;;;;;;;10.71;49.40;101484.13;5001336;27;98683;-65
2022/12/02 12:27:01;;;;;;;;;;;;;;;10.69;49.56;101475.44;5010817;27;98291;-63
2022/12/02 12:29:34;;;;;;;;;;;;;;;10.68;49.43;101477.31;5008174;27;98428;-64
2022/12/02 12:32:00;;;;;;;;;;;;;;;10.68;49.52;101477.31;5008831;27;98054;-65
2022/12/02 12:34:25;;;;;;;;;;;;;;;10.68;49.43;101469.22;5000895;27;116076;-63
2022/12/02 12:36:51;;;;;;;;;;;;;;;10.68;49.62;101474.63;4994199;27;126168;-63
2022/12/02 12:39:17;;;;;;;;;;;;;;;10.69;49.48;101480.84;5006620;27;128017;-63
2022/12/02 12:41:43;;;;;;;;;;;;;;;10.69;49.50;101475.44;4989395;27;128112;-66